createdAt,value
2023-03-17T00:00:14.571Z,52543.91
2023-03-17T00:02:42.999Z,52511.34
2023-03-17T00:05:17.967Z,52529.66
2023-03-17T00:07:46.384Z,52537.81
2023-03-17T00:10:18.453Z,52531.72
2023-03-17T00:12:49.554Z,52523.56
2023-03-17T00:15:17.769Z,52523.56
2023-03-17T00:17:45.524Z,52554.09
2023-03-17T00:20:18.945Z,52539.84
2023-03-17T00:22:49.016Z,52535.78
2023-03-17T00:25:27.331Z,52488.97
2023-03-17T00:27:55.472Z,52503.22
2023-03-17T00:30:23.150Z,52584.63
2023-03-17T00:32:57.567Z,52531.72
2023-03-17T00:35:27.814Z,52547.97
2023-03-17T00:37:57.161Z,52564.25
2023-03-17T00:40:31.050Z,52517.47
2023-03-17T00:43:05.656Z,52486.94
2023-03-17T00:45:32.358Z,52521.53
2023-03-17T00:47:59.050Z,52529.66
2023-03-17T00:50:28.663Z,52499.16
2023-03-17T00:52:57.609Z,52523.56
2023-03-17T00:55:26.706Z,52539.84
2023-03-17T00:57:53.822Z,52537.81
2023-03-17T01:00:24.696Z,52539.84
2023-03-17T01:02:52.927Z,52531.72
2023-03-17T01:05:24.150Z,52552.06
2023-03-17T01:07:57.238Z,52552.06
2023-03-17T01:10:26.796Z,52558.16
2023-03-17T01:12:55.549Z,52495.06
2023-03-17T01:15:22.743Z,52533.75
2023-03-17T01:17:50.683Z,52562.22
2023-03-17T01:20:27.790Z,52560.19
2023-03-17T01:22:55.191Z,52547.97
2023-03-17T01:25:22.139Z,52552.06
2023-03-17T01:27:49.267Z,52478.81
2023-03-17T01:30:32.312Z,52529.66
2023-03-17T01:33:00.054Z,52558.16
2023-03-17T01:35:29.463Z,52554.09
2023-03-17T01:37:57.198Z,52529.66
2023-03-17T01:40:28.085Z,52560.19
2023-03-17T01:43:02.591Z,52554.09
2023-03-17T01:46:06.893Z,52568.34
2023-03-17T01:48:38.661Z,52537.81
2023-03-17T01:51:07.444Z,52566.31
2023-03-17T01:53:35.920Z,52547.97
2023-03-17T01:56:03.655Z,52556.13
2023-03-17T01:58:31.699Z,52535.78
2023-03-17T02:00:58.148Z,52556.13
2023-03-17T02:03:26.122Z,52537.81
2023-03-17T02:05:54.962Z,52562.22
2023-03-17T02:08:21.476Z,52535.78
2023-03-17T02:10:49.660Z,52535.78
2023-03-17T02:13:16.758Z,52550.03
2023-03-17T02:15:50.911Z,52558.16
2023-03-17T02:18:20.732Z,52572.41
2023-03-17T02:20:47.107Z,52554.09
2023-03-17T02:23:22.329Z,52523.56
2023-03-17T02:25:51.935Z,52519.50
2023-03-17T02:28:26.026Z,52527.63
2023-03-17T02:30:52.881Z,52533.75
2023-03-17T02:33:19.624Z,52523.56
2023-03-17T02:35:47.811Z,52509.31
2023-03-17T02:38:18.452Z,52537.81
2023-03-17T02:40:44.954Z,52495.06
2023-03-17T02:43:11.473Z,52495.06
2023-03-17T02:45:37.894Z,52543.91
2023-03-17T02:48:05.612Z,52531.72
2023-03-17T02:50:32.837Z,52545.94
2023-03-17T02:52:59.225Z,52501.19
2023-03-17T02:55:28.718Z,52509.31
2023-03-17T02:57:55.114Z,52539.84
2023-03-17T03:00:22.082Z,52509.31
2023-03-17T03:02:48.454Z,52562.22
2023-03-17T03:05:14.912Z,52513.41
2023-03-17T03:07:41.531Z,52533.75
2023-03-17T03:10:09.322Z,52515.44
2023-03-17T03:12:36.264Z,52501.19
2023-03-17T03:15:02.743Z,52523.56
2023-03-17T03:17:29.142Z,52533.75
2023-03-17T03:19:55.615Z,52515.44
2023-03-17T03:22:22.050Z,52499.16
2023-03-17T03:24:48.688Z,52503.22
2023-03-17T03:27:15.110Z,52541.88
2023-03-17T03:29:41.800Z,52537.81
2023-03-17T03:32:08.689Z,52517.47
2023-03-17T03:34:35.381Z,52558.16
2023-03-17T03:37:02.096Z,52509.31
2023-03-17T03:39:28.583Z,52562.22
2023-03-17T03:41:58.363Z,52533.75
2023-03-17T03:44:25.043Z,52523.56
2023-03-17T03:46:51.876Z,52505.25
2023-03-17T03:49:18.517Z,52550.03
2023-03-17T03:51:44.920Z,52533.75
2023-03-17T03:54:11.396Z,52535.78
2023-03-17T03:56:37.840Z,52476.75
2023-03-17T03:59:04.410Z,52515.44
2023-03-17T04:01:30.871Z,52547.97
2023-03-17T04:03:57.280Z,52474.72
2023-03-17T04:06:26.744Z,52486.94
2023-03-17T04:08:53.214Z,52537.81
2023-03-17T04:11:19.636Z,52484.91
2023-03-17T04:13:46.252Z,52519.50
2023-03-17T04:16:12.769Z,52517.47
2023-03-17T04:18:39.326Z,52558.16
2023-03-17T04:21:07.064Z,52476.75
2023-03-17T04:23:33.632Z,52513.41
2023-03-17T04:26:00.099Z,52507.28
2023-03-17T04:28:26.508Z,52511.34
2023-03-17T04:30:52.922Z,52543.91
2023-03-17T04:33:20.295Z,52491.00
2023-03-17T04:35:46.800Z,52503.22
2023-03-17T04:38:13.618Z,52497.13
2023-03-17T04:40:40.165Z,52505.25
2023-03-17T04:43:06.586Z,52531.72
2023-03-17T04:45:33.298Z,52517.47
2023-03-17T04:47:59.829Z,52527.63
2023-03-17T04:50:26.562Z,52525.59
2023-03-17T04:52:53.013Z,52505.25
2023-03-17T04:55:19.669Z,52533.75
2023-03-17T04:57:46.506Z,52523.56
2023-03-17T05:00:13.405Z,52531.72
2023-03-17T05:02:39.981Z,52531.72
2023-03-17T05:05:06.910Z,52566.31
2023-03-17T05:07:34.236Z,52539.84
2023-03-17T05:10:00.945Z,52541.88
2023-03-17T05:12:27.764Z,52562.22
2023-03-17T05:15:01.628Z,52519.50
2023-03-17T05:17:28.064Z,52558.16
2023-03-17T05:19:54.497Z,52539.84
2023-03-17T05:22:21.181Z,52507.28
2023-03-17T05:24:47.736Z,52533.75
2023-03-17T05:27:14.155Z,52525.59
2023-03-17T05:29:40.632Z,52531.72
2023-03-17T05:32:07.580Z,52525.59
2023-03-17T05:34:34.019Z,52541.88
2023-03-17T05:37:00.852Z,52499.16
2023-03-17T05:39:27.970Z,52521.53
2023-03-17T05:41:54.292Z,52566.31
2023-03-17T05:44:20.826Z,52543.91
2023-03-17T05:46:47.588Z,52527.63
2023-03-17T05:49:14.040Z,52493.03
2023-03-17T05:51:41.903Z,52521.53
2023-03-17T05:54:08.709Z,52570.38
2023-03-17T05:56:35.233Z,52517.47
2023-03-17T05:59:02.334Z,52562.22
2023-03-17T06:01:29.570Z,52564.25
2023-03-17T06:03:56.166Z,52566.31
2023-03-17T06:06:24.571Z,52519.50
2023-03-17T06:08:51.640Z,52507.28
2023-03-17T06:11:19.944Z,52537.81
2023-03-17T06:13:46.955Z,52564.25
2023-03-17T06:16:13.738Z,52501.19
2023-03-17T06:18:40.612Z,52531.72
2023-03-17T06:21:07.305Z,52533.75
2023-03-17T06:23:33.847Z,52509.31
2023-03-17T06:26:00.643Z,52509.31
2023-03-17T06:28:29.596Z,52507.28
2023-03-17T06:30:56.217Z,52527.63
2023-03-17T06:33:22.758Z,52533.75
2023-03-17T06:35:49.404Z,52523.56
2023-03-17T06:38:15.866Z,52482.88
2023-03-17T06:40:42.367Z,52470.66
2023-03-17T06:43:11.244Z,52529.66
2023-03-17T06:45:37.670Z,52511.34
2023-03-17T06:48:04.243Z,52541.88
2023-03-17T06:50:30.890Z,52464.56
2023-03-17T06:52:57.277Z,52491.00
2023-03-17T06:55:23.737Z,52491.00
2023-03-17T06:57:51.386Z,52515.44
2023-03-17T07:00:19.190Z,52478.81
2023-03-17T07:02:45.905Z,52462.53
2023-03-17T07:05:13.925Z,52464.56
2023-03-17T07:07:41.068Z,52486.94
2023-03-17T07:10:10.363Z,52480.84
2023-03-17T07:12:37.217Z,52497.13
2023-03-17T07:15:03.848Z,52482.88
2023-03-17T07:17:30.739Z,52460.50
2023-03-17T07:20:00.146Z,52454.38
2023-03-17T07:22:27.173Z,52476.75
2023-03-17T07:24:53.599Z,52448.28
2023-03-17T07:27:22.849Z,52480.84
2023-03-17T07:29:49.707Z,52456.41
2023-03-17T07:32:16.243Z,52425.91
2023-03-17T07:34:43.037Z,52432.00
2023-03-17T07:37:10.369Z,52440.13
2023-03-17T07:39:36.799Z,52440.13
2023-03-17T07:42:03.382Z,52444.22
2023-03-17T07:44:30.491Z,52450.31
2023-03-17T07:46:57.004Z,52389.28
2023-03-17T07:49:40.038Z,52448.28
2023-03-17T07:52:09.453Z,52505.25
2023-03-17T07:54:37.061Z,52466.59
2023-03-17T07:57:04.391Z,52432.00
2023-03-17T07:59:31.603Z,52474.72
2023-03-17T08:01:59.669Z,52464.56
2023-03-17T08:04:27.504Z,52429.97
2023-03-17T08:06:54.611Z,52427.94
2023-03-17T08:09:22.320Z,52425.91
2023-03-17T08:11:49.393Z,52411.66
2023-03-17T08:14:15.824Z,52444.22
2023-03-17T08:16:42.847Z,52454.38
2023-03-17T08:19:10.780Z,52403.50
2023-03-17T08:21:38.301Z,52427.94
2023-03-17T08:24:05.310Z,52403.50
2023-03-17T08:26:32.333Z,52413.69
2023-03-17T08:28:58.883Z,52387.22
2023-03-17T08:31:25.386Z,52373.00
2023-03-17T08:33:54.314Z,52389.28
2023-03-17T08:36:21.718Z,52375.03
2023-03-17T08:38:48.830Z,52356.72
2023-03-17T08:41:16.641Z,52362.81
2023-03-17T08:43:43.928Z,52366.88
2023-03-17T08:46:19.963Z,52379.09
2023-03-17T08:48:48.481Z,52377.06
2023-03-17T08:51:18.578Z,52358.75
2023-03-17T08:53:46.565Z,52391.31
2023-03-17T08:56:14.120Z,52348.56
2023-03-17T08:58:42.554Z,52322.13
2023-03-17T09:01:10.919Z,52401.47
2023-03-17T09:03:39.467Z,52322.13
2023-03-17T09:06:07.625Z,52316.03
2023-03-17T09:08:37.555Z,52291.59
2023-03-17T09:11:05.414Z,52320.09
2023-03-17T09:13:33.291Z,52352.66
2023-03-17T09:16:01.383Z,52299.75
2023-03-17T09:18:27.897Z,52289.56
2023-03-17T09:20:54.366Z,52289.56
2023-03-17T09:23:20.937Z,52279.41
2023-03-17T09:25:47.876Z,52265.16
2023-03-17T09:28:14.318Z,52257.00
2023-03-17T09:30:44.652Z,52275.31
2023-03-17T09:35:42.053Z,52271.25
2023-03-17T09:38:09.506Z,52254.97
2023-03-17T09:40:46.721Z,52246.84
2023-03-17T09:43:13.114Z,52240.75
2023-03-17T09:45:43.541Z,52232.59
2023-03-17T09:48:26.139Z,52224.47
2023-03-17T09:51:05.044Z,52220.38
2023-03-17T09:53:39.458Z,52232.59
2023-03-17T09:56:11.620Z,52222.41
2023-03-17T09:58:40.639Z,52177.66
2023-03-17T10:01:10.370Z,52208.19
2023-03-17T10:03:37.515Z,52189.88
2023-03-17T10:06:18.747Z,52179.69
2023-03-17T10:08:53.778Z,52159.34
2023-03-17T10:11:44.702Z,52171.56
2023-03-17T10:14:28.768Z,52171.56
2023-03-17T10:17:03.718Z,52191.91
2023-03-17T10:19:42.272Z,52151.22
2023-03-17T10:22:28.661Z,52177.66
2023-03-17T10:25:01.205Z,52151.22
2023-03-17T10:27:35.101Z,52159.34
2023-03-17T10:30:04.024Z,52155.28
2023-03-17T10:32:33.160Z,52130.88
2023-03-17T10:34:59.621Z,52153.25
2023-03-17T10:37:29.642Z,52159.34
2023-03-17T10:39:57.383Z,52157.31
2023-03-17T10:42:35.652Z,52130.88
2023-03-17T10:45:14.305Z,52153.25
2023-03-17T10:47:44.686Z,52169.53
2023-03-17T10:50:28.832Z,52106.44
2023-03-17T10:53:08.967Z,52147.13
2023-03-17T10:55:38.206Z,52118.66
2023-03-17T10:58:16.310Z,52122.72
2023-03-17T11:00:57.243Z,52116.63
2023-03-17T11:03:35.331Z,52098.31
2023-03-17T11:06:34.053Z,52147.13
2023-03-17T11:09:09.558Z,52118.66
2023-03-17T11:11:47.109Z,52098.31
2023-03-17T11:14:16.252Z,52094.25
2023-03-17T11:16:53.520Z,52110.53
2023-03-17T11:19:29.854Z,52124.75
2023-03-17T11:22:07.343Z,52092.22
2023-03-17T11:24:42.755Z,52096.28
2023-03-17T11:27:24.150Z,52086.09
2023-03-17T11:30:21.837Z,52120.69
2023-03-17T11:32:58.037Z,52130.88
2023-03-17T11:35:38.365Z,52106.44
2023-03-17T11:38:20.196Z,52073.91
2023-03-17T11:41:06.440Z,52102.38
2023-03-17T11:44:08.026Z,52082.03
2023-03-17T11:46:59.597Z,52102.38
2023-03-17T11:49:38.818Z,52108.47
2023-03-17T11:52:58.072Z,52100.34
2023-03-17T11:55:45.351Z,52134.94
2023-03-17T11:58:25.843Z,52088.13
2023-03-17T12:00:57.125Z,52092.22
2023-03-17T12:03:48.953Z,52084.06
2023-03-17T12:06:28.161Z,52098.31
2023-03-17T12:09:07.722Z,52047.44
2023-03-17T12:11:40.338Z,52110.53
2023-03-17T12:14:19.118Z,52112.56
2023-03-17T12:17:30.268Z,52130.88
2023-03-17T12:20:05.591Z,52086.09
2023-03-17T12:23:05.498Z,52112.56
2023-03-17T12:25:57.675Z,52088.13
2023-03-17T12:28:32.966Z,52051.50
2023-03-17T12:31:33.351Z,52045.41
2023-03-17T12:34:10.265Z,52065.75
2023-03-17T12:36:38.247Z,52053.53
2023-03-17T12:39:18.173Z,52061.69
2023-03-17T12:41:53.774Z,52063.72
2023-03-17T12:44:39.240Z,52021.00
2023-03-17T12:47:12.099Z,52045.41
2023-03-17T12:50:04.611Z,52016.94
2023-03-17T12:52:58.742Z,52031.16
2023-03-17T12:55:27.924Z,52025.06
2023-03-17T12:58:02.164Z,52049.47
2023-03-17T13:00:32.137Z,52047.44
2023-03-17T13:03:26.707Z,52061.69
2023-03-17T13:06:00.581Z,52049.47
2023-03-17T13:08:33.846Z,52067.78
2023-03-17T13:11:18.427Z,52045.41
2023-03-17T13:13:48.071Z,52043.38
2023-03-17T13:16:34.606Z,52077.97
2023-03-17T13:19:24.875Z,52084.06
2023-03-17T13:22:04.158Z,52047.44
2023-03-17T13:24:47.355Z,52092.22
2023-03-17T13:27:34.190Z,52106.44
2023-03-17T13:30:40.557Z,52098.31
2023-03-17T13:33:10.164Z,52090.16
2023-03-17T13:35:41.379Z,52082.03
2023-03-17T13:38:34.947Z,52094.25
2023-03-17T13:41:20.075Z,52106.44
2023-03-17T13:44:12.315Z,52096.28
2023-03-17T13:46:41.795Z,52102.38
2023-03-17T13:49:26.790Z,52092.22
2023-03-17T13:51:59.878Z,52043.38
2023-03-17T13:54:26.919Z,52055.59
2023-03-17T13:56:55.133Z,52057.63
2023-03-17T13:59:31.871Z,52084.06
2023-03-17T14:02:01.488Z,52059.66
2023-03-17T14:04:44.750Z,52104.41
2023-03-17T14:07:25.037Z,52086.09
2023-03-17T14:09:57.416Z,52069.81
2023-03-17T14:12:51.309Z,52065.75
2023-03-17T14:15:42.087Z,52088.13
2023-03-17T14:18:15.500Z,52069.81
2023-03-17T14:20:57.485Z,52077.97
2023-03-17T14:23:24.937Z,52061.69
2023-03-17T14:25:54.343Z,52071.84
2023-03-17T14:28:27.383Z,52037.28
2023-03-17T14:31:03.218Z,52071.84
2023-03-17T14:33:33.652Z,52049.47
2023-03-17T14:36:02.175Z,52084.06
2023-03-17T14:38:31.249Z,52098.31
2023-03-17T14:41:07.144Z,52016.94
2023-03-17T14:43:36.232Z,52051.50
2023-03-17T14:46:33.408Z,52065.75
2023-03-17T14:49:14.323Z,52090.16
2023-03-17T14:51:42.054Z,52047.44
2023-03-17T14:54:23.297Z,52045.41
2023-03-17T14:57:04.455Z,52116.63
2023-03-17T14:59:38.381Z,52114.59
2023-03-17T15:02:21.462Z,52090.16
2023-03-17T15:04:57.496Z,52096.28
2023-03-17T15:07:42.834Z,52118.66
2023-03-17T15:10:31.127Z,52114.59
2023-03-17T15:13:05.690Z,52086.09
2023-03-17T15:15:37.998Z,52098.31
2023-03-17T15:18:11.977Z,52102.38
2023-03-17T15:20:38.487Z,52110.53
2023-03-17T15:23:22.106Z,52096.28
2023-03-17T15:25:57.820Z,52106.44
2023-03-17T15:28:33.332Z,52080.00
2023-03-17T15:31:13.348Z,52100.34
2023-03-17T15:33:41.493Z,52077.97
2023-03-17T15:36:29.304Z,52092.22
2023-03-17T15:38:58.016Z,52120.69
2023-03-17T15:41:24.515Z,52122.72
2023-03-17T15:43:51.154Z,52112.56
2023-03-17T15:46:27.457Z,52153.25
2023-03-17T15:48:56.688Z,52114.59
2023-03-17T15:51:23.161Z,52104.41
2023-03-17T15:53:52.578Z,52136.97
2023-03-17T15:56:21.316Z,52155.28
2023-03-17T15:58:49.295Z,52143.06
2023-03-17T16:01:19.736Z,52145.09
2023-03-17T16:03:48.120Z,52134.94
2023-03-17T16:06:21.351Z,52167.50
2023-03-17T16:08:48.812Z,52139.00
2023-03-17T16:11:25.716Z,52139.00
2023-03-17T16:13:52.282Z,52149.19
2023-03-17T16:16:35.048Z,52175.63
2023-03-17T16:19:04.731Z,52155.28
2023-03-17T16:21:32.363Z,52191.91
2023-03-17T16:23:59.074Z,52169.53
2023-03-17T16:26:25.504Z,52183.75
2023-03-17T16:28:52.053Z,52169.53
2023-03-17T16:31:30.229Z,52143.06
2023-03-17T16:33:57.328Z,52132.91
2023-03-17T16:36:25.041Z,52145.09
2023-03-17T16:38:52.139Z,52153.25
2023-03-17T16:41:21.685Z,52159.34
2023-03-17T16:43:51.317Z,52187.84
2023-03-17T16:46:19.746Z,52183.75
2023-03-17T16:48:46.222Z,52139.00
2023-03-17T16:51:12.642Z,52212.25
2023-03-17T16:53:39.425Z,52220.38
2023-03-17T16:56:13.708Z,52200.03
2023-03-17T16:58:40.276Z,52187.84
2023-03-17T17:01:13.727Z,52208.19
2023-03-17T17:03:40.655Z,52187.84
2023-03-17T17:06:08.725Z,52208.19
2023-03-17T17:08:35.354Z,52204.13
2023-03-17T17:11:02.837Z,52175.63
2023-03-17T17:13:29.324Z,52193.94
2023-03-17T17:15:56.275Z,52195.97
2023-03-17T17:18:24.509Z,52202.06
2023-03-17T17:20:53.242Z,52185.81
2023-03-17T17:23:22.181Z,52242.78
2023-03-17T17:25:49.392Z,52175.63
2023-03-17T17:28:17.582Z,52230.56
2023-03-17T17:30:48.259Z,52232.59
2023-03-17T17:33:16.204Z,52187.84
2023-03-17T17:35:43.977Z,52232.59
2023-03-17T17:38:28.196Z,52230.56
2023-03-17T17:40:56.421Z,52236.66
2023-03-17T17:43:24.526Z,52244.81
2023-03-17T17:45:51.996Z,52195.97
2023-03-17T17:48:22.446Z,52191.91
2023-03-17T17:50:49.448Z,52204.13
2023-03-17T17:53:15.985Z,52222.41
2023-03-17T17:55:44.153Z,52228.53
2023-03-17T17:58:16.278Z,52230.56
2023-03-17T18:00:43.134Z,52257.00
2023-03-17T18:03:10.154Z,52244.81
2023-03-17T18:05:36.914Z,52200.03
2023-03-17T18:08:04.003Z,52238.69
2023-03-17T18:10:30.822Z,52191.91
2023-03-17T18:12:57.870Z,52240.75
2023-03-17T18:15:26.575Z,52248.88
2023-03-17T18:17:53.965Z,52222.41
2023-03-17T18:20:21.982Z,52252.94
2023-03-17T18:22:49.689Z,52257.00
2023-03-17T18:25:17.255Z,52238.69
2023-03-17T18:27:43.966Z,52277.34
2023-03-17T18:30:13.967Z,52244.81
2023-03-17T18:32:42.861Z,52273.28
2023-03-17T18:35:14.521Z,52248.88
2023-03-17T18:37:41.216Z,52252.94
2023-03-17T18:40:18.007Z,52234.63
2023-03-17T18:42:45.338Z,52267.19
2023-03-17T18:45:12.787Z,52200.03
2023-03-17T18:47:41.685Z,52224.47
2023-03-17T18:50:10.577Z,52236.66
2023-03-17T18:52:39.600Z,52232.59
2023-03-17T18:55:07.294Z,52250.91
2023-03-17T18:57:33.780Z,52220.38
2023-03-17T19:00:00.215Z,52248.88
2023-03-17T19:02:26.695Z,52234.63
2023-03-17T19:04:53.109Z,52271.25
2023-03-17T19:07:19.745Z,52254.97
2023-03-17T19:09:46.322Z,52236.66
2023-03-17T19:12:13.477Z,52265.16
2023-03-17T19:14:40.359Z,52265.16
2023-03-17T19:17:07.548Z,52261.09
2023-03-17T19:19:35.343Z,52232.59
2023-03-17T19:22:02.175Z,52254.97
2023-03-17T19:24:29.143Z,52252.94
2023-03-17T19:26:55.559Z,52265.16
2023-03-17T19:29:22.107Z,52269.22
2023-03-17T19:31:48.882Z,52273.28
2023-03-17T19:34:15.460Z,52265.16
2023-03-17T19:36:43.584Z,52261.09
2023-03-17T19:39:10.920Z,52291.59
2023-03-17T19:41:37.459Z,52232.59
2023-03-17T19:44:06.889Z,52265.16
2023-03-17T19:46:34.685Z,52275.31
2023-03-17T19:49:01.637Z,52291.59
2023-03-17T19:51:28.712Z,52273.28
2023-03-17T19:53:55.126Z,52318.06
2023-03-17T19:56:23.070Z,52240.75
2023-03-17T19:58:49.697Z,52257.00
2023-03-17T20:01:17.223Z,52246.84
2023-03-17T20:03:43.878Z,52234.63
2023-03-17T20:06:11.305Z,52261.09
2023-03-17T20:08:37.796Z,52246.84
2023-03-17T20:11:05.717Z,52283.47
2023-03-17T20:13:34.631Z,52242.78
2023-03-17T20:16:01.911Z,52291.59
2023-03-17T20:18:29.270Z,52309.91
2023-03-17T20:20:57.517Z,52267.19
2023-03-17T20:23:25.177Z,52277.34
2023-03-17T20:25:52.620Z,52269.22
2023-03-17T20:28:21.388Z,52279.41
2023-03-17T20:30:49.335Z,52273.28
2023-03-17T20:33:16.495Z,52301.78
2023-03-17T20:35:44.136Z,52261.09
2023-03-17T20:38:13.425Z,52281.44
2023-03-17T20:40:40.681Z,52293.63
2023-03-17T20:43:07.829Z,52238.69
2023-03-17T20:45:34.390Z,52246.84
2023-03-17T20:48:02.007Z,52281.44
2023-03-17T20:50:29.430Z,52236.66
2023-03-17T20:52:55.848Z,52303.81
2023-03-17T20:55:22.265Z,52269.22
2023-03-17T20:57:49.815Z,52257.00
2023-03-17T21:00:20.168Z,52238.69
2023-03-17T21:02:50.095Z,52293.63
2023-03-17T21:05:25.726Z,52252.94
2023-03-17T21:07:52.656Z,52277.34
2023-03-17T21:10:22.489Z,52281.44
2023-03-17T21:12:48.951Z,52248.88
2023-03-17T21:15:16.722Z,52297.72
2023-03-17T21:17:43.226Z,52246.84
2023-03-17T21:20:12.577Z,52257.00
2023-03-17T21:22:40.139Z,52281.44
2023-03-17T21:25:08.746Z,52246.84
2023-03-17T21:27:39.433Z,52267.19
2023-03-17T21:30:09.632Z,52265.16
2023-03-17T21:32:36.299Z,52275.31
2023-03-17T21:35:02.968Z,52269.22
2023-03-17T21:37:29.467Z,52307.88
2023-03-17T21:39:56.646Z,52281.44
2023-03-17T21:42:24.599Z,52250.91
2023-03-17T21:44:52.262Z,52289.56
2023-03-17T21:47:19.552Z,52301.78
2023-03-17T21:49:46.331Z,52234.63
2023-03-17T21:52:14.890Z,52259.03
2023-03-17T21:54:41.751Z,52297.72
2023-03-17T21:57:08.227Z,52285.50
2023-03-17T21:59:35.761Z,52257.00
2023-03-17T22:02:02.876Z,52275.31
2023-03-17T22:04:29.244Z,52291.59
2023-03-17T22:06:56.073Z,52285.50
2023-03-17T22:09:22.589Z,52287.53
2023-03-17T22:11:49.761Z,52279.41
2023-03-17T22:14:20.146Z,52309.91
2023-03-17T22:16:50.246Z,52289.56
2023-03-17T22:19:18.227Z,52289.56
2023-03-17T22:21:45.791Z,52299.75
2023-03-17T22:24:12.626Z,52299.75
2023-03-17T22:26:39.212Z,52279.41
2023-03-17T22:29:05.628Z,52285.50
2023-03-17T22:31:32.180Z,52263.13
2023-03-17T22:33:59.572Z,52269.22
2023-03-17T22:36:26.612Z,52265.16
2023-03-17T22:38:53.289Z,52271.25
2023-03-17T22:41:21.636Z,52271.25
2023-03-17T22:43:51.233Z,52271.25
2023-03-17T22:46:18.613Z,52277.34
2023-03-17T22:48:46.731Z,52293.63
2023-03-17T22:51:17.056Z,52234.63
2023-03-17T22:53:44.625Z,52273.28
2023-03-17T22:56:12.771Z,52293.63
2023-03-17T22:58:39.551Z,52277.34
2023-03-17T23:01:06.680Z,52234.63
2023-03-17T23:03:34.157Z,52285.50
2023-03-17T23:06:01.886Z,52283.47
2023-03-17T23:08:31.652Z,52263.13
2023-03-17T23:11:00.524Z,52285.50
2023-03-17T23:13:27.710Z,52265.16
2023-03-17T23:15:54.581Z,52277.34
2023-03-17T23:18:21.006Z,52265.16
2023-03-17T23:20:47.756Z,52275.31
2023-03-17T23:23:14.590Z,52313.97
2023-03-17T23:25:41.280Z,52289.56
2023-03-17T23:28:08.255Z,52297.72
2023-03-17T23:30:35.757Z,52275.31
2023-03-17T23:33:04.877Z,52291.59
2023-03-17T23:35:32.299Z,52291.59
2023-03-17T23:37:59.235Z,52311.94
2023-03-17T23:40:25.685Z,52279.41
2023-03-17T23:42:54.380Z,52301.78
2023-03-17T23:45:23.225Z,52279.41
2023-03-17T23:47:52.094Z,52309.91
2023-03-17T23:50:19.938Z,52313.97
2023-03-17T23:52:47.169Z,52313.97
2023-03-17T23:55:14.612Z,52307.88
2023-03-17T23:57:41.539Z,52318.06
